sensor_id;sensor_type;location;lat;lon;timestamp;temperature;humidity
12926;DHT22;6529;50.566;9.774;2024-02-23T00:01:26;8.10;63.70
12926;DHT22;6529;50.566;9.774;2024-02-23T00:03:51;8.10;13.50
12926;DHT22;6529;50.566;9.774;2024-02-23T00:06:17;8.00;1.00
12926;DHT22;6529;50.566;9.774;2024-02-23T00:08:43;8.00;1.00
12926;DHT22;6529;50.566;9.774;2024-02-23T00:11:09;7.90;1.00
12926;DHT22;6529;50.566;9.774;2024-02-23T00:13:35;7.90;88.90
12926;DHT22;6529;50.566;9.774;2024-02-23T00:16:00;7.90;16.70
12926;DHT22;6529;50.566;9.774;2024-02-23T00:18:26;7.80;1.00
12926;DHT22;6529;50.566;9.774;2024-02-23T00:20:51;7.80;1.00
12926;DHT22;6529;50.566;9.774;2024-02-23T00:23:17;7.70;1.00
12926;DHT22;6529;50.566;9.774;2024-02-23T00:25:44;7.60;1.00
12926;DHT22;6529;50.566;9.774;2024-02-23T00:28:10;7.60;1.00
12926;DHT22;6529;50.566;9.774;2024-02-23T00:30:35;7.60;1.00
12926;DHT22;6529;50.566;9.774;2024-02-23T00:33:01;7.60;1.00
12926;DHT22;6529;50.566;9.774;2024-02-23T00:35:27;7.60;1.00
12926;DHT22;6529;50.566;9.774;2024-02-23T00:37:52;7.50;99.90
12926;DHT22;6529;50.566;9.774;2024-02-23T00:40:18;7.50;1.00
12926;DHT22;6529;50.566;9.774;2024-02-23T00:42:43;7.50;1.00
12926;DHT22;6529;50.566;9.774;2024-02-23T00:45:09;7.50;1.00
12926;DHT22;6529;50.566;9.774;2024-02-23T00:47:34;7.40;99.90
12926;DHT22;6529;50.566;9.774;2024-02-23T00:50:01;7.40;99.90
12926;DHT22;6529;50.566;9.774;2024-02-23T00:52:27;7.40;99.90
12926;DHT22;6529;50.566;9.774;2024-02-23T00:54:52;7.40;1.00
12926;DHT22;6529;50.566;9.774;2024-02-23T00:57:18;7.40;1.00
12926;DHT22;6529;50.566;9.774;2024-02-23T00:59:51;7.40;99.90
12926;DHT22;6529;50.566;9.774;2024-02-23T01:02:16;7.40;1.00
12926;DHT22;6529;50.566;9.774;2024-02-23T01:04:42;7.40;1.00
12926;DHT22;6529;50.566;9.774;2024-02-23T01:07:07;7.40;99.90
12926;DHT22;6529;50.566;9.774;2024-02-23T01:09:33;7.40;1.00
12926;DHT22;6529;50.566;9.774;2024-02-23T01:11:59;7.30;99.90
12926;DHT22;6529;50.566;9.774;2024-02-23T01:14:25;7.30;1.00
12926;DHT22;6529;50.566;9.774;2024-02-23T01:16:50;7.30;1.00
12926;DHT22;6529;50.566;9.774;2024-02-23T01:19:16;7.30;1.00
12926;DHT22;6529;50.566;9.774;2024-02-23T01:21:41;7.20;1.00
12926;DHT22;6529;50.566;9.774;2024-02-23T01:24:07;7.20;1.00
12926;DHT22;6529;50.566;9.774;2024-02-23T01:26:33;7.20;99.90
12926;DHT22;6529;50.566;9.774;2024-02-23T01:28:58;7.20;1.00
12926;DHT22;6529;50.566;9.774;2024-02-23T01:31:24;7.20;99.90
12926;DHT22;6529;50.566;9.774;2024-02-23T01:33:49;7.10;1.00
12926;DHT22;6529;50.566;9.774;2024-02-23T01:36:15;7.10;1.00
12926;DHT22;6529;50.566;9.774;2024-02-23T01:38:41;7.10;1.00
12926;DHT22;6529;50.566;9.774;2024-02-23T01:41:08;7.00;99.90
12926;DHT22;6529;50.566;9.774;2024-02-23T01:43:34;7.00;1.00
12926;DHT22;6529;50.566;9.774;2024-02-23T01:45:59;7.00;99.90
12926;DHT22;6529;50.566;9.774;2024-02-23T01:48:25;7.00;1.00
12926;DHT22;6529;50.566;9.774;2024-02-23T01:50:52;7.00;99.90
12926;DHT22;6529;50.566;9.774;2024-02-23T01:53:18;6.90;99.90
12926;DHT22;6529;50.566;9.774;2024-02-23T01:55:45;6.90;1.00
12926;DHT22;6529;50.566;9.774;2024-02-23T01:58:12;6.90;99.90
12926;DHT22;6529;50.566;9.774;2024-02-23T02:00:38;6.90;99.90
12926;DHT22;6529;50.566;9.774;2024-02-23T02:03:04;6.80;9.20
12926;DHT22;6529;50.566;9.774;2024-02-23T02:05:30;6.80;1.00
12926;DHT22;6529;50.566;9.774;2024-02-23T02:07:56;6.80;1.00
12926;DHT22;6529;50.566;9.774;2024-02-23T02:10:24;6.70;1.00
12926;DHT22;6529;50.566;9.774;2024-02-23T02:12:50;6.70;99.90
12926;DHT22;6529;50.566;9.774;2024-02-23T02:15:16;6.60;99.90
12926;DHT22;6529;50.566;9.774;2024-02-23T02:17:42;6.50;1.00
12926;DHT22;6529;50.566;9.774;2024-02-23T02:20:11;6.30;5.80
12926;DHT22;6529;50.566;9.774;2024-02-23T02:22:37;6.20;99.90
12926;DHT22;6529;50.566;9.774;2024-02-23T02:25:03;6.00;99.90
12926;DHT22;6529;50.566;9.774;2024-02-23T02:27:29;5.90;99.90
12926;DHT22;6529;50.566;9.774;2024-02-23T02:29:55;5.80;99.90
12926;DHT22;6529;50.566;9.774;2024-02-23T02:32:20;5.60;99.90
12926;DHT22;6529;50.566;9.774;2024-02-23T02:34:46;5.50;99.90
12926;DHT22;6529;50.566;9.774;2024-02-23T02:37:11;5.50;99.90
12926;DHT22;6529;50.566;9.774;2024-02-23T02:39:37;5.50;99.90
12926;DHT22;6529;50.566;9.774;2024-02-23T02:42:03;5.50;99.90
12926;DHT22;6529;50.566;9.774;2024-02-23T02:44:28;5.50;99.90
12926;DHT22;6529;50.566;9.774;2024-02-23T02:46:58;5.40;99.90
12926;DHT22;6529;50.566;9.774;2024-02-23T02:49:24;5.50;99.90
12926;DHT22;6529;50.566;9.774;2024-02-23T02:51:50;5.40;99.90
12926;DHT22;6529;50.566;9.774;2024-02-23T02:54:16;5.40;99.20
12926;DHT22;6529;50.566;9.774;2024-02-23T02:56:45;5.50;21.60
12926;DHT22;6529;50.566;9.774;2024-02-23T02:59:15;5.50;46.70
12926;DHT22;6529;50.566;9.774;2024-02-23T03:01:42;5.50;1.00
12926;DHT22;6529;50.566;9.774;2024-02-23T03:04:08;5.50;1.00
12926;DHT22;6529;50.566;9.774;2024-02-23T03:06:33;5.60;4.70
12926;DHT22;6529;50.566;9.774;2024-02-23T03:08:59;5.50;1.00
12926;DHT22;6529;50.566;9.774;2024-02-23T03:11:24;5.60;1.00
12926;DHT22;6529;50.566;9.774;2024-02-23T03:13:50;5.60;1.00
12926;DHT22;6529;50.566;9.774;2024-02-23T03:16:20;5.60;1.00
12926;DHT22;6529;50.566;9.774;2024-02-23T03:18:46;5.60;1.00
12926;DHT22;6529;50.566;9.774;2024-02-23T03:21:12;5.50;99.90
12926;DHT22;6529;50.566;9.774;2024-02-23T03:23:39;5.40;1.00
12926;DHT22;6529;50.566;9.774;2024-02-23T03:26:06;5.40;99.90
12926;DHT22;6529;50.566;9.774;2024-02-23T03:28:32;5.30;99.90
12926;DHT22;6529;50.566;9.774;2024-02-23T03:30:59;5.40;99.90
12926;DHT22;6529;50.566;9.774;2024-02-23T03:33:25;5.40;99.90
12926;DHT22;6529;50.566;9.774;2024-02-23T03:35:50;5.30;99.90
12926;DHT22;6529;50.566;9.774;2024-02-23T03:38:16;5.30;1.00
12926;DHT22;6529;50.566;9.774;2024-02-23T03:40:42;5.30;35.90
12926;DHT22;6529;50.566;9.774;2024-02-23T03:43:07;5.20;99.90
12926;DHT22;6529;50.566;9.774;2024-02-23T03:45:33;5.20;51.90
12926;DHT22;6529;50.566;9.774;2024-02-23T03:47:59;5.20;1.00
12926;DHT22;6529;50.566;9.774;2024-02-23T03:50:25;5.20;1.00
12926;DHT22;6529;50.566;9.774;2024-02-23T03:52:50;5.20;1.00
12926;DHT22;6529;50.566;9.774;2024-02-23T03:55:16;5.20;99.90
12926;DHT22;6529;50.566;9.774;2024-02-23T03:57:42;5.10;1.00
12926;DHT22;6529;50.566;9.774;2024-02-23T04:00:07;5.20;1.00
12926;DHT22;6529;50.566;9.774;2024-02-23T04:02:34;5.20;1.00
12926;DHT22;6529;50.566;9.774;2024-02-23T04:05:00;5.20;1.00
12926;DHT22;6529;50.566;9.774;2024-02-23T04:07:25;5.20;91.50
12926;DHT22;6529;50.566;9.774;2024-02-23T04:09:51;5.20;1.00
12926;DHT22;6529;50.566;9.774;2024-02-23T04:12:23;5.20;1.00
12926;DHT22;6529;50.566;9.774;2024-02-23T04:14:48;5.20;1.00
12926;DHT22;6529;50.566;9.774;2024-02-23T04:17:14;5.20;1.00
12926;DHT22;6529;50.566;9.774;2024-02-23T04:19:43;5.20;1.00
12926;DHT22;6529;50.566;9.774;2024-02-23T04:22:09;5.30;1.00
12926;DHT22;6529;50.566;9.774;2024-02-23T04:24:37;5.20;44.30
12926;DHT22;6529;50.566;9.774;2024-02-23T04:27:08;5.20;99.90
12926;DHT22;6529;50.566;9.774;2024-02-23T04:29:33;5.10;1.00
12926;DHT22;6529;50.566;9.774;2024-02-23T04:32:00;5.10;1.00
12926;DHT22;6529;50.566;9.774;2024-02-23T04:34:29;5.10;99.90
12926;DHT22;6529;50.566;9.774;2024-02-23T04:36:55;5.00;99.90
12926;DHT22;6529;50.566;9.774;2024-02-23T04:39:21;5.00;1.00
12926;DHT22;6529;50.566;9.774;2024-02-23T04:41:47;5.00;1.00
12926;DHT22;6529;50.566;9.774;2024-02-23T04:44:13;4.90;1.00
12926;DHT22;6529;50.566;9.774;2024-02-23T04:46:38;4.90;99.90
12926;DHT22;6529;50.566;9.774;2024-02-23T04:49:04;4.90;99.90
12926;DHT22;6529;50.566;9.774;2024-02-23T04:51:29;4.90;1.00
12926;DHT22;6529;50.566;9.774;2024-02-23T04:53:55;4.90;1.00
12926;DHT22;6529;50.566;9.774;2024-02-23T04:56:21;5.00;1.00
12926;DHT22;6529;50.566;9.774;2024-02-23T04:58:46;4.90;99.90
12926;DHT22;6529;50.566;9.774;2024-02-23T05:01:12;4.90;99.90
12926;DHT22;6529;50.566;9.774;2024-02-23T05:03:38;4.90;99.90
12926;DHT22;6529;50.566;9.774;2024-02-23T05:06:04;4.90;1.00
12926;DHT22;6529;50.566;9.774;2024-02-23T05:08:30;4.90;99.90
12926;DHT22;6529;50.566;9.774;2024-02-23T05:10:56;4.90;1.00
12926;DHT22;6529;50.566;9.774;2024-02-23T05:13:22;4.90;1.00
12926;DHT22;6529;50.566;9.774;2024-02-23T05:15:48;4.90;99.90
12926;DHT22;6529;50.566;9.774;2024-02-23T05:18:14;4.80;1.00
12926;DHT22;6529;50.566;9.774;2024-02-23T05:20:39;4.80;1.00
12926;DHT22;6529;50.566;9.774;2024-02-23T05:23:05;4.80;55.30
12926;DHT22;6529;50.566;9.774;2024-02-23T05:25:30;4.70;99.90
12926;DHT22;6529;50.566;9.774;2024-02-23T05:27:57;4.70;49.40
12926;DHT22;6529;50.566;9.774;2024-02-23T05:30:23;4.70;99.90
12926;DHT22;6529;50.566;9.774;2024-02-23T05:32:48;4.70;1.00
12926;DHT22;6529;50.566;9.774;2024-02-23T05:35:14;4.60;1.00
12926;DHT22;6529;50.566;9.774;2024-02-23T05:37:41;4.60;1.00
12926;DHT22;6529;50.566;9.774;2024-02-23T05:40:07;4.60;1.00
12926;DHT22;6529;50.566;9.774;2024-02-23T05:42:36;4.60;77.10
12926;DHT22;6529;50.566;9.774;2024-02-23T05:45:02;4.50;99.90
12926;DHT22;6529;50.566;9.774;2024-02-23T05:47:30;4.50;99.90
12926;DHT22;6529;50.566;9.774;2024-02-23T05:49:56;4.50;99.90
12926;DHT22;6529;50.566;9.774;2024-02-23T05:52:21;4.50;99.90
12926;DHT22;6529;50.566;9.774;2024-02-23T05:54:47;4.60;99.90
12926;DHT22;6529;50.566;9.774;2024-02-23T05:57:12;4.60;1.00
12926;DHT22;6529;50.566;9.774;2024-02-23T05:59:38;4.70;82.20
12926;DHT22;6529;50.566;9.774;2024-02-23T06:02:04;4.70;1.00
12926;DHT22;6529;50.566;9.774;2024-02-23T06:04:29;4.60;99.90
12926;DHT22;6529;50.566;9.774;2024-02-23T06:06:56;4.70;99.90
12926;DHT22;6529;50.566;9.774;2024-02-23T06:09:21;4.70;57.50
12926;DHT22;6529;50.566;9.774;2024-02-23T06:11:47;4.70;1.00
12926;DHT22;6529;50.566;9.774;2024-02-23T06:14:13;4.70;9.00
12926;DHT22;6529;50.566;9.774;2024-02-23T06:16:39;4.70;99.90
12926;DHT22;6529;50.566;9.774;2024-02-23T06:19:05;4.70;1.00
12926;DHT22;6529;50.566;9.774;2024-02-23T06:21:31;4.70;99.90
12926;DHT22;6529;50.566;9.774;2024-02-23T06:23:58;4.70;99.90
12926;DHT22;6529;50.566;9.774;2024-02-23T06:26:23;4.60;99.90
12926;DHT22;6529;50.566;9.774;2024-02-23T06:28:49;4.60;1.00
12926;DHT22;6529;50.566;9.774;2024-02-23T06:31:15;4.60;1.00
12926;DHT22;6529;50.566;9.774;2024-02-23T06:33:40;4.60;1.00
12926;DHT22;6529;50.566;9.774;2024-02-23T06:36:07;4.60;1.00
12926;DHT22;6529;50.566;9.774;2024-02-23T06:38:33;4.60;1.00
12926;DHT22;6529;50.566;9.774;2024-02-23T06:40:59;4.60;99.90
12926;DHT22;6529;50.566;9.774;2024-02-23T06:43:24;4.60;1.00
12926;DHT22;6529;50.566;9.774;2024-02-23T06:45:50;4.60;99.90
12926;DHT22;6529;50.566;9.774;2024-02-23T06:48:16;4.60;7.20
12926;DHT22;6529;50.566;9.774;2024-02-23T06:50:42;4.60;58.30
12926;DHT22;6529;50.566;9.774;2024-02-23T06:53:07;4.50;99.90
12926;DHT22;6529;50.566;9.774;2024-02-23T06:55:34;4.50;81.00
12926;DHT22;6529;50.566;9.774;2024-02-23T06:58:00;4.50;1.00
12926;DHT22;6529;50.566;9.774;2024-02-23T07:00:25;4.40;7.50
12926;DHT22;6529;50.566;9.774;2024-02-23T07:02:51;4.40;99.90
12926;DHT22;6529;50.566;9.774;2024-02-23T07:05:16;4.40;99.90
12926;DHT22;6529;50.566;9.774;2024-02-23T07:07:42;4.40;99.90
12926;DHT22;6529;50.566;9.774;2024-02-23T07:10:08;4.40;99.90
12926;DHT22;6529;50.566;9.774;2024-02-23T07:12:35;4.30;99.90
12926;DHT22;6529;50.566;9.774;2024-02-23T07:15:01;4.30;99.90
12926;DHT22;6529;50.566;9.774;2024-02-23T07:17:27;4.20;99.90
12926;DHT22;6529;50.566;9.774;2024-02-23T07:19:53;4.20;1.00
12926;DHT22;6529;50.566;9.774;2024-02-23T07:22:19;4.20;1.00
12926;DHT22;6529;50.566;9.774;2024-02-23T07:24:45;4.10;1.00
12926;DHT22;6529;50.566;9.774;2024-02-23T07:27:11;4.20;1.00
12926;DHT22;6529;50.566;9.774;2024-02-23T07:29:37;4.20;1.00
12926;DHT22;6529;50.566;9.774;2024-02-23T07:32:02;4.20;99.90
12926;DHT22;6529;50.566;9.774;2024-02-23T07:34:28;4.20;99.90
12926;DHT22;6529;50.566;9.774;2024-02-23T07:36:54;4.20;16.20
12926;DHT22;6529;50.566;9.774;2024-02-23T07:39:20;4.30;71.20
12926;DHT22;6529;50.566;9.774;2024-02-23T07:41:47;4.40;1.00
12926;DHT22;6529;50.566;9.774;2024-02-23T07:44:12;4.40;99.90
12926;DHT22;6529;50.566;9.774;2024-02-23T07:46:38;4.40;1.00
12926;DHT22;6529;50.566;9.774;2024-02-23T07:49:04;4.40;47.40
12926;DHT22;6529;50.566;9.774;2024-02-23T07:51:31;4.50;1.00
12926;DHT22;6529;50.566;9.774;2024-02-23T07:53:57;4.50;1.00
12926;DHT22;6529;50.566;9.774;2024-02-23T07:56:22;4.50;99.90
12926;DHT22;6529;50.566;9.774;2024-02-23T07:58:48;4.50;1.00
12926;DHT22;6529;50.566;9.774;2024-02-23T08:01:17;4.50;99.90
12926;DHT22;6529;50.566;9.774;2024-02-23T08:03:42;4.50;1.00
12926;DHT22;6529;50.566;9.774;2024-02-23T08:06:08;4.50;99.90
12926;DHT22;6529;50.566;9.774;2024-02-23T08:08:33;4.50;1.00
12926;DHT22;6529;50.566;9.774;2024-02-23T08:11:01;4.60;1.00
12926;DHT22;6529;50.566;9.774;2024-02-23T08:13:27;4.70;99.90
12926;DHT22;6529;50.566;9.774;2024-02-23T08:15:53;4.60;1.00
12926;DHT22;6529;50.566;9.774;2024-02-23T08:18:19;4.70;25.90
12926;DHT22;6529;50.566;9.774;2024-02-23T08:20:44;4.70;1.00
12926;DHT22;6529;50.566;9.774;2024-02-23T08:23:10;4.70;99.90
12926;DHT22;6529;50.566;9.774;2024-02-23T08:25:36;4.80;1.00
12926;DHT22;6529;50.566;9.774;2024-02-23T08:28:02;4.90;1.00
12926;DHT22;6529;50.566;9.774;2024-02-23T08:30:28;5.00;1.00
12926;DHT22;6529;50.566;9.774;2024-02-23T08:32:53;5.00;1.00
12926;DHT22;6529;50.566;9.774;2024-02-23T08:35:19;5.10;99.90
12926;DHT22;6529;50.566;9.774;2024-02-23T08:37:45;5.10;1.00
12926;DHT22;6529;50.566;9.774;2024-02-23T08:40:11;5.10;67.50
12926;DHT22;6529;50.566;9.774;2024-02-23T08:42:37;5.10;1.00
12926;DHT22;6529;50.566;9.774;2024-02-23T08:45:03;5.10;1.00
12926;DHT22;6529;50.566;9.774;2024-02-23T08:47:29;5.10;99.90
12926;DHT22;6529;50.566;9.774;2024-02-23T08:49:58;5.10;1.00
12926;DHT22;6529;50.566;9.774;2024-02-23T08:52:24;5.20;1.00
12926;DHT22;6529;50.566;9.774;2024-02-23T08:54:50;5.20;1.00
12926;DHT22;6529;50.566;9.774;2024-02-23T08:57:16;5.20;1.00
12926;DHT22;6529;50.566;9.774;2024-02-23T08:59:45;5.20;1.00
12926;DHT22;6529;50.566;9.774;2024-02-23T09:02:10;5.20;99.90
12926;DHT22;6529;50.566;9.774;2024-02-23T09:04:36;5.20;2.70
12926;DHT22;6529;50.566;9.774;2024-02-23T09:07:02;5.30;1.00
12926;DHT22;6529;50.566;9.774;2024-02-23T09:09:27;5.30;1.00
12926;DHT22;6529;50.566;9.774;2024-02-23T09:11:53;5.30;75.20
12926;DHT22;6529;50.566;9.774;2024-02-23T09:14:19;5.30;1.00
12926;DHT22;6529;50.566;9.774;2024-02-23T09:16:44;5.30;99.90
12926;DHT22;6529;50.566;9.774;2024-02-23T09:19:11;5.40;99.90
12926;DHT22;6529;50.566;9.774;2024-02-23T09:21:37;5.50;1.00
12926;DHT22;6529;50.566;9.774;2024-02-23T09:24:04;5.60;1.00
12926;DHT22;6529;50.566;9.774;2024-02-23T09:26:30;5.70;1.00
12926;DHT22;6529;50.566;9.774;2024-02-23T09:28:56;6.00;99.90
12926;DHT22;6529;50.566;9.774;2024-02-23T09:31:22;6.30;1.00
12926;DHT22;6529;50.566;9.774;2024-02-23T09:33:47;6.50;99.90
12926;DHT22;6529;50.566;9.774;2024-02-23T09:36:16;6.50;15.50
12926;DHT22;6529;50.566;9.774;2024-02-23T09:38:42;6.60;1.00
12926;DHT22;6529;50.566;9.774;2024-02-23T09:41:19;6.70;99.90
12926;DHT22;6529;50.566;9.774;2024-02-23T09:43:46;6.60;1.00
12926;DHT22;6529;50.566;9.774;2024-02-23T09:46:13;6.30;1.00
12926;DHT22;6529;50.566;9.774;2024-02-23T09:48:41;6.20;1.00
12926;DHT22;6529;50.566;9.774;2024-02-23T09:51:07;6.20;99.90
12926;DHT22;6529;50.566;9.774;2024-02-23T09:53:37;6.10;1.00
12926;DHT22;6529;50.566;9.774;2024-02-23T09:56:04;6.00;99.90
12926;DHT22;6529;50.566;9.774;2024-02-23T09:58:34;6.00;1.00
12926;DHT22;6529;50.566;9.774;2024-02-23T10:01:02;6.00;1.00
12926;DHT22;6529;50.566;9.774;2024-02-23T10:03:29;6.00;1.00
12926;DHT22;6529;50.566;9.774;2024-02-23T10:05:59;5.90;1.00
12926;DHT22;6529;50.566;9.774;2024-02-23T10:08:29;5.90;1.00
12926;DHT22;6529;50.566;9.774;2024-02-23T10:10:55;6.00;1.00
12926;DHT22;6529;50.566;9.774;2024-02-23T10:13:22;5.90;1.00
12926;DHT22;6529;50.566;9.774;2024-02-23T10:15:49;6.00;99.90
12926;DHT22;6529;50.566;9.774;2024-02-23T10:18:16;6.00;99.90
12926;DHT22;6529;50.566;9.774;2024-02-23T10:20:42;5.90;1.00
12926;DHT22;6529;50.566;9.774;2024-02-23T10:23:08;6.00;1.00
12926;DHT22;6529;50.566;9.774;2024-02-23T10:25:34;5.90;1.00
12926;DHT22;6529;50.566;9.774;2024-02-23T10:28:07;6.00;1.00
12926;DHT22;6529;50.566;9.774;2024-02-23T10:30:33;6.10;99.90
12926;DHT22;6529;50.566;9.774;2024-02-23T10:32:58;6.10;1.00
12926;DHT22;6529;50.566;9.774;2024-02-23T10:35:25;6.10;1.00
12926;DHT22;6529;50.566;9.774;2024-02-23T10:37:51;6.20;1.00
12926;DHT22;6529;50.566;9.774;2024-02-23T10:40:19;6.20;1.00
12926;DHT22;6529;50.566;9.774;2024-02-23T10:42:46;6.20;1.00
12926;DHT22;6529;50.566;9.774;2024-02-23T10:45:21;6.20;1.00
12926;DHT22;6529;50.566;9.774;2024-02-23T10:47:51;6.30;94.20
12926;DHT22;6529;50.566;9.774;2024-02-23T10:50:17;6.30;99.90
12926;DHT22;6529;50.566;9.774;2024-02-23T10:52:45;6.20;99.90
12926;DHT22;6529;50.566;9.774;2024-02-23T10:55:12;6.20;99.90
12926;DHT22;6529;50.566;9.774;2024-02-23T10:57:38;6.20;99.90
12926;DHT22;6529;50.566;9.774;2024-02-23T11:00:08;6.10;99.90
12926;DHT22;6529;50.566;9.774;2024-02-23T11:02:49;6.20;1.00
12926;DHT22;6529;50.566;9.774;2024-02-23T11:05:16;6.20;99.90
12926;DHT22;6529;50.566;9.774;2024-02-23T11:07:42;6.20;99.90
12926;DHT22;6529;50.566;9.774;2024-02-23T11:10:08;6.30;1.00
12926;DHT22;6529;50.566;9.774;2024-02-23T11:12:36;6.20;99.90
12926;DHT22;6529;50.566;9.774;2024-02-23T11:15:02;6.20;99.90
12926;DHT22;6529;50.566;9.774;2024-02-23T11:17:30;6.30;1.00
12926;DHT22;6529;50.566;9.774;2024-02-23T11:19:56;6.40;1.00
12926;DHT22;6529;50.566;9.774;2024-02-23T11:22:33;6.40;1.00
12926;DHT22;6529;50.566;9.774;2024-02-23T11:25:09;6.50;1.00
12926;DHT22;6529;50.566;9.774;2024-02-23T11:27:37;6.60;99.90
12926;DHT22;6529;50.566;9.774;2024-02-23T11:30:12;6.70;99.90
12926;DHT22;6529;50.566;9.774;2024-02-23T11:35:11;6.60;99.90
12926;DHT22;6529;50.566;9.774;2024-02-23T11:37:51;6.50;99.90
12926;DHT22;6529;50.566;9.774;2024-02-23T11:40:22;6.50;1.00
12926;DHT22;6529;50.566;9.774;2024-02-23T11:42:48;6.60;1.00
12926;DHT22;6529;50.566;9.774;2024-02-23T11:45:13;6.70;1.00
12926;DHT22;6529;50.566;9.774;2024-02-23T11:47:39;6.90;1.00
12926;DHT22;6529;50.566;9.774;2024-02-23T11:50:09;7.00;1.00
12926;DHT22;6529;50.566;9.774;2024-02-23T11:52:36;7.00;99.90
12926;DHT22;6529;50.566;9.774;2024-02-23T11:55:02;6.90;1.00
12926;DHT22;6529;50.566;9.774;2024-02-23T11:57:27;6.90;1.00
12926;DHT22;6529;50.566;9.774;2024-02-23T11:59:54;7.00;99.90
12926;DHT22;6529;50.566;9.774;2024-02-23T12:02:19;7.20;1.00
12926;DHT22;6529;50.566;9.774;2024-02-23T12:04:45;7.30;1.00
12926;DHT22;6529;50.566;9.774;2024-02-23T12:07:11;7.30;1.00
12926;DHT22;6529;50.566;9.774;2024-02-23T12:09:37;7.30;1.00
12926;DHT22;6529;50.566;9.774;2024-02-23T12:12:06;7.30;1.00
12926;DHT22;6529;50.566;9.774;2024-02-23T12:14:34;7.30;27.10
12926;DHT22;6529;50.566;9.774;2024-02-23T12:17:02;7.30;1.00
12926;DHT22;6529;50.566;9.774;2024-02-23T12:19:29;7.20;1.00
12926;DHT22;6529;50.566;9.774;2024-02-23T12:22:00;7.00;4.70
12926;DHT22;6529;50.566;9.774;2024-02-23T12:24:25;7.00;1.00
12926;DHT22;6529;50.566;9.774;2024-02-23T12:26:55;7.10;1.00
12926;DHT22;6529;50.566;9.774;2024-02-23T12:29:20;7.10;1.00
12926;DHT22;6529;50.566;9.774;2024-02-23T12:31:46;7.20;1.00
12926;DHT22;6529;50.566;9.774;2024-02-23T12:34:11;7.20;1.00
12926;DHT22;6529;50.566;9.774;2024-02-23T12:36:40;7.20;99.90
12926;DHT22;6529;50.566;9.774;2024-02-23T12:39:06;7.10;99.90
12926;DHT22;6529;50.566;9.774;2024-02-23T12:41:32;7.10;99.90
12926;DHT22;6529;50.566;9.774;2024-02-23T12:44:00;7.20;99.90
12926;DHT22;6529;50.566;9.774;2024-02-23T12:46:26;7.30;99.90
12926;DHT22;6529;50.566;9.774;2024-02-23T12:48:51;7.30;1.00
12926;DHT22;6529;50.566;9.774;2024-02-23T12:51:18;7.30;1.00
12926;DHT22;6529;50.566;9.774;2024-02-23T12:53:43;7.40;1.00
12926;DHT22;6529;50.566;9.774;2024-02-23T12:56:10;7.40;1.00
12926;DHT22;6529;50.566;9.774;2024-02-23T12:58:37;7.40;1.00
12926;DHT22;6529;50.566;9.774;2024-02-23T13:01:03;7.50;1.00
12926;DHT22;6529;50.566;9.774;2024-02-23T13:03:29;7.60;99.90
12926;DHT22;6529;50.566;9.774;2024-02-23T13:05:55;7.60;99.90
12926;DHT22;6529;50.566;9.774;2024-02-23T13:08:22;7.60;87.00
12926;DHT22;6529;50.566;9.774;2024-02-23T13:10:49;7.60;1.00
12926;DHT22;6529;50.566;9.774;2024-02-23T13:13:14;7.60;99.90
12926;DHT22;6529;50.566;9.774;2024-02-23T13:15:41;7.60;1.00
12926;DHT22;6529;50.566;9.774;2024-02-23T13:18:07;7.70;99.90
12926;DHT22;6529;50.566;9.774;2024-02-23T13:20:33;7.60;99.90
12926;DHT22;6529;50.566;9.774;2024-02-23T13:22:58;7.50;99.90
12926;DHT22;6529;50.566;9.774;2024-02-23T13:25:24;7.40;99.90
12926;DHT22;6529;50.566;9.774;2024-02-23T13:27:49;7.40;1.00
12926;DHT22;6529;50.566;9.774;2024-02-23T13:30:15;7.50;99.90
12926;DHT22;6529;50.566;9.774;2024-02-23T13:32:41;7.40;99.90
12926;DHT22;6529;50.566;9.774;2024-02-23T13:35:06;7.20;1.00
12926;DHT22;6529;50.566;9.774;2024-02-23T13:37:34;7.20;1.00
12926;DHT22;6529;50.566;9.774;2024-02-23T13:40:00;7.20;99.90
12926;DHT22;6529;50.566;9.774;2024-02-23T13:42:25;7.10;1.00
12926;DHT22;6529;50.566;9.774;2024-02-23T13:44:51;7.10;1.00
12926;DHT22;6529;50.566;9.774;2024-02-23T13:47:17;7.20;1.00
12926;DHT22;6529;50.566;9.774;2024-02-23T13:49:42;7.20;1.00
12926;DHT22;6529;50.566;9.774;2024-02-23T13:52:08;7.10;1.00
12926;DHT22;6529;50.566;9.774;2024-02-23T13:54:34;7.10;1.00
12926;DHT22;6529;50.566;9.774;2024-02-23T13:56:59;7.10;1.00
12926;DHT22;6529;50.566;9.774;2024-02-23T13:59:25;7.20;1.00
12926;DHT22;6529;50.566;9.774;2024-02-23T14:01:51;7.20;1.00
12926;DHT22;6529;50.566;9.774;2024-02-23T14:04:17;7.20;1.00
12926;DHT22;6529;50.566;9.774;2024-02-23T14:06:42;7.30;1.00
12926;DHT22;6529;50.566;9.774;2024-02-23T14:09:09;7.30;1.00
12926;DHT22;6529;50.566;9.774;2024-02-23T14:11:35;7.30;1.00
12926;DHT22;6529;50.566;9.774;2024-02-23T14:14:00;7.30;1.00
12926;DHT22;6529;50.566;9.774;2024-02-23T14:16:28;7.30;1.00
12926;DHT22;6529;50.566;9.774;2024-02-23T14:18:54;7.20;1.00
12926;DHT22;6529;50.566;9.774;2024-02-23T14:21:19;7.30;1.00
12926;DHT22;6529;50.566;9.774;2024-02-23T14:23:46;7.30;1.00
12926;DHT22;6529;50.566;9.774;2024-02-23T14:26:12;7.30;1.00
12926;DHT22;6529;50.566;9.774;2024-02-23T14:28:38;7.40;1.00
12926;DHT22;6529;50.566;9.774;2024-02-23T14:31:04;7.40;1.00
12926;DHT22;6529;50.566;9.774;2024-02-23T14:33:30;7.20;1.00
12926;DHT22;6529;50.566;9.774;2024-02-23T14:35:55;7.10;1.00
12926;DHT22;6529;50.566;9.774;2024-02-23T14:38:21;7.00;1.00
12926;DHT22;6529;50.566;9.774;2024-02-23T14:40:47;7.10;1.00
12926;DHT22;6529;50.566;9.774;2024-02-23T14:43:13;7.10;1.00
12926;DHT22;6529;50.566;9.774;2024-02-23T14:45:38;7.10;99.90
12926;DHT22;6529;50.566;9.774;2024-02-23T14:48:04;7.10;1.00
12926;DHT22;6529;50.566;9.774;2024-02-23T14:50:30;7.00;1.00
12926;DHT22;6529;50.566;9.774;2024-02-23T14:52:55;7.00;1.00
12926;DHT22;6529;50.566;9.774;2024-02-23T14:55:21;6.90;1.00
12926;DHT22;6529;50.566;9.774;2024-02-23T14:57:47;7.00;1.00
12926;DHT22;6529;50.566;9.774;2024-02-23T15:00:13;7.20;1.00
12926;DHT22;6529;50.566;9.774;2024-02-23T15:02:39;7.30;1.00
12926;DHT22;6529;50.566;9.774;2024-02-23T15:05:07;7.30;99.90
12926;DHT22;6529;50.566;9.774;2024-02-23T15:07:34;7.10;1.00
12926;DHT22;6529;50.566;9.774;2024-02-23T15:10:01;7.10;1.00
12926;DHT22;6529;50.566;9.774;2024-02-23T15:12:31;7.00;1.00
12926;DHT22;6529;50.566;9.774;2024-02-23T15:14:57;7.10;1.00
12926;DHT22;6529;50.566;9.774;2024-02-23T15:17:22;7.10;1.00
12926;DHT22;6529;50.566;9.774;2024-02-23T15:19:48;7.00;99.90
12926;DHT22;6529;50.566;9.774;2024-02-23T15:22:13;6.80;1.00
12926;DHT22;6529;50.566;9.774;2024-02-23T15:24:41;6.70;1.00
12926;DHT22;6529;50.566;9.774;2024-02-23T15:27:08;6.70;1.00
12926;DHT22;6529;50.566;9.774;2024-02-23T15:29:34;6.70;1.00
12926;DHT22;6529;50.566;9.774;2024-02-23T15:32:00;6.90;99.90
12926;DHT22;6529;50.566;9.774;2024-02-23T15:34:26;6.90;1.00
12926;DHT22;6529;50.566;9.774;2024-02-23T15:36:52;6.90;1.00
12926;DHT22;6529;50.566;9.774;2024-02-23T15:39:17;6.90;29.70
12926;DHT22;6529;50.566;9.774;2024-02-23T15:41:43;7.00;1.00
12926;DHT22;6529;50.566;9.774;2024-02-23T15:44:10;6.90;1.00
12926;DHT22;6529;50.566;9.774;2024-02-23T15:46:36;6.80;1.00
12926;DHT22;6529;50.566;9.774;2024-02-23T15:49:01;6.70;1.00
12926;DHT22;6529;50.566;9.774;2024-02-23T15:51:27;6.70;1.00
12926;DHT22;6529;50.566;9.774;2024-02-23T15:53:52;6.70;1.00
12926;DHT22;6529;50.566;9.774;2024-02-23T15:56:18;6.70;1.00
12926;DHT22;6529;50.566;9.774;2024-02-23T15:58:44;6.60;42.40
12926;DHT22;6529;50.566;9.774;2024-02-23T16:01:09;6.60;99.90
12926;DHT22;6529;50.566;9.774;2024-02-23T16:03:35;6.60;7.30
12926;DHT22;6529;50.566;9.774;2024-02-23T16:06:00;6.60;99.90
12926;DHT22;6529;50.566;9.774;2024-02-23T16:11:07;6.70;99.90